Time;durP1;ratioP1;P1;durP2;ratioP2;P2;SDS_P1;SDS_P2;PMS_P1;PMS_P2;Temp;Humidity;BMP_temperature;BMP_pressure;BME280_temperature;BME280_humidity;BME280_pressure;Samples;Min_cycle;Max_cycle;Signal;HPM_P1;HPM_P2
2023/02/22 00:00:45;;;;;;;3.25;2.95;;;18.40;56.30;;;;;;5113697;28;20219;-55
2023/02/22 00:03:23;;;;;;;3.15;2.90;;;18.40;56.30;;;;;;5115867;28;20177;-58
2023/02/22 00:05:57;;;;;;;3.75;3.38;;;18.30;56.20;;;;;;5115528;28;20184;-58
2023/02/22 00:08:24;;;;;;;3.88;3.20;;;18.30;56.20;;;;;;5115012;28;20213;-57
2023/02/22 00:10:52;;;;;;;4.88;3.42;;;18.20;56.20;;;;;;5115481;28;20170;-56
2023/02/22 00:13:18;;;;;;;3.88;3.47;;;18.30;56.20;;;;;;5115930;28;20532;-57
2023/02/22 00:15:44;;;;;;;3.40;3.10;;;18.20;56.20;;;;;;5114414;28;20173;-56
2023/02/22 00:18:13;;;;;;;3.22;3.00;;;18.20;56.20;;;;;;5115421;28;20363;-55
2023/02/22 00:20:39;;;;;;;3.50;3.20;;;18.20;56.90;;;;;;5115267;28;20197;-57
2023/02/22 00:23:08;;;;;;;3.53;2.95;;;18.20;56.20;;;;;;5114521;28;20238;-56
2023/02/22 00:25:34;;;;;;;3.65;3.35;;;18.20;56.20;;;;;;5115007;28;20650;-57
2023/02/22 00:28:00;;;;;;;3.38;3.08;;;18.20;56.20;;;;;;5115761;28;20216;-56
2023/02/22 00:30:27;;;;;;;4.18;3.47;;;18.10;56.10;;;;;;5114338;28;20256;-55
2023/02/22 00:32:54;;;;;;;3.70;3.40;;;18.10;56.10;;;;;;5115001;28;20181;-56
2023/02/22 00:35:21;;;;;;;4.28;3.88;;;18.20;56.20;;;;;;5114555;28;20294;-56
2023/02/22 00:37:47;;;;;;;4.00;3.60;;;18.10;56.10;;;;;;5114917;28;20177;-57
2023/02/22 00:40:15;;;;;;;3.90;3.50;;;18.10;56.10;;;;;;5115038;28;20270;-57
2023/02/22 00:42:41;;;;;;;4.43;3.67;;;18.10;56.10;;;;;;5114244;28;20173;-58
2023/02/22 00:45:07;;;;;;;4.13;3.55;;;18.10;56.10;;;;;;5114866;28;20176;-58
2023/02/22 00:47:32;;;;;;;5.32;4.10;;;18.10;56.10;;;;;;5114609;28;20312;-57
2023/02/22 00:49:59;;;;;;;4.55;4.10;;;18.10;56.10;;;;;;5114063;28;20196;-56
2023/02/22 00:52:25;;;;;;;4.00;3.60;;;18.00;56.00;;;;;;5115104;28;20205;-56
2023/02/22 00:54:50;;;;;;;4.97;4.47;;;18.00;56.00;;;;;;5114455;28;20173;-55
2023/02/22 00:57:16;;;;;;;4.63;4.05;;;18.00;56.00;;;;;;5114374;28;20692;-58
2023/02/22 00:59:41;;;;;;;4.03;3.60;;;18.00;56.00;;;;;;5114342;28;20620;-57
2023/02/22 01:02:08;;;;;;;4.72;4.28;;;18.00;56.00;;;;;;5114589;28;20185;-57
2023/02/22 01:04:33;;;;;;;4.70;4.30;;;18.00;56.00;;;;;;5113118;28;20173;-56
2023/02/22 01:06:59;;;;;;;4.55;4.13;;;18.00;56.10;;;;;;5114706;28;20227;-56
2023/02/22 01:09:25;;;;;;;4.95;4.45;;;18.00;56.00;;;;;;5114451;28;20517;-56
2023/02/22 01:11:56;;;;;;;4.32;3.92;;;17.90;56.00;;;;;;5113361;28;20209;-56
2023/02/22 01:14:27;;;;;;;4.80;4.32;;;17.90;56.00;;;;;;5114179;28;20658;-55
2023/02/22 01:16:54;;;;;;;4.60;4.20;;;17.90;56.60;;;;;;5114021;28;20238;-56
2023/02/22 01:19:20;;;;;;;4.80;4.30;;;17.90;56.00;;;;;;5113596;28;20230;-57
2023/02/22 01:21:46;;;;;;;4.85;4.35;;;17.90;56.00;;;;;;5113909;28;20200;-57
2023/02/22 01:24:15;;;;;;;3.97;3.67;;;17.90;56.00;;;;;;5114021;28;20165;-56
2023/02/22 01:26:47;;;;;;;5.20;4.70;;;17.80;55.90;;;;;;5113022;28;20204;-55
2023/02/22 01:29:14;;;;;;;4.28;3.88;;;17.90;56.00;;;;;;5114346;28;20528;-57
2023/02/22 01:31:42;;;;;;;4.70;4.25;;;17.80;55.90;;;;;;5113319;28;20176;-56
2023/02/22 01:34:11;;;;;;;4.75;4.28;;;17.80;55.90;;;;;;5114070;28;20184;-57
2023/02/22 01:36:38;;;;;;;4.68;4.18;;;17.80;55.90;;;;;;5113654;28;20165;-55
2023/02/22 01:39:04;;;;;;;4.45;4.05;;;17.80;55.90;;;;;;5113598;28;20648;-57
2023/02/22 01:41:30;;;;;;;5.38;4.65;;;17.80;55.90;;;;;;5113966;28;20655;-55
2023/02/22 01:43:55;;;;;;;4.95;4.45;;;17.70;55.90;;;;;;5113678;28;20169;-57
2023/02/22 01:46:23;;;;;;;6.15;3.95;;;17.70;55.90;;;;;;5113514;28;20168;-55
2023/02/22 01:48:49;;;;;;;5.32;4.82;;;17.80;56.00;;;;;;5113593;28;20177;-56
2023/02/22 01:51:29;;;;;;;4.40;4.00;;;17.80;55.90;;;;;;5112580;28;20214;-55
2023/02/22 01:54:05;;;;;;;5.05;4.55;;;17.70;55.90;;;;;;5111369;28;20179;-56
2023/02/22 01:56:32;;;;;;;4.53;4.13;;;17.70;55.90;;;;;;5112605;28;20177;-56
2023/02/22 01:59:00;;;;;;;5.38;4.60;;;17.70;55.90;;;;;;5112518;28;20177;-57
2023/02/22 02:01:25;;;;;;;4.57;4.18;;;17.70;55.90;;;;;;5112857;28;20173;-58
2023/02/22 02:03:51;;;;;;;5.03;4.53;;;17.70;55.90;;;;;;5113499;28;20202;-58
2023/02/22 02:06:17;;;;;;;4.63;4.22;;;17.70;55.90;;;;;;5112306;28;20622;-52
2023/02/22 02:08:59;;;;;;;4.72;4.32;;;17.70;55.80;;;;;;5112543;28;20212;-57
2023/02/22 02:11:25;;;;;;;4.60;4.20;;;17.60;55.80;;;;;;5112421;28;20177;-55
2023/02/22 02:13:55;;;;;;;4.93;4.43;;;17.70;55.90;;;;;;5112560;28;20180;-57
2023/02/22 02:16:22;;;;;;;4.75;4.25;;;17.70;55.90;;;;;;5113105;28;20632;-56
2023/02/22 02:18:48;;;;;;;4.60;4.20;;;17.70;55.90;;;;;;5111557;28;20250;-57
2023/02/22 02:21:28;;;;;;;4.72;3.95;;;17.60;55.80;;;;;;5111705;28;20702;-58
2023/02/22 02:24:17;;;;;;;4.95;4.32;;;17.60;55.80;;;;;;5112226;28;20172;-56
2023/02/22 02:27:34;;;;;;;4.60;4.20;;;17.60;55.80;;;;;;5111916;28;20677;-56
2023/02/22 02:30:17;;;;;;;4.38;3.97;;;17.60;55.80;;;;;;5049951;28;20179;-55
2023/02/22 02:32:46;;;;;;;5.10;4.60;;;17.60;55.80;;;;;;5104760;28;20580;-56
2023/02/22 02:35:20;;;;;;;4.68;4.28;;;17.60;55.80;;;;;;5112447;28;20203;-55
2023/02/22 02:37:56;;;;;;;4.55;4.15;;;17.60;55.80;;;;;;5111877;28;20184;-57
2023/02/22 02:40:35;;;;;;;4.82;4.13;;;17.60;55.80;;;;;;5112320;28;20512;-56
2023/02/22 02:43:11;;;;;;;4.57;4.18;;;17.50;55.80;;;;;;5111727;28;20180;-58
2023/02/22 02:45:58;;;;;;;5.05;4.25;;;17.60;55.80;;;;;;5111656;28;20168;-57
2023/02/22 02:48:25;;;;;;;4.82;4.03;;;17.50;55.80;;;;;;5111772;28;20698;-55
2023/02/22 02:50:51;;;;;;;4.68;4.28;;;17.50;55.80;;;;;;5110813;28;20623;-56
2023/02/22 02:53:20;;;;;;;4.50;4.10;;;17.50;55.80;;;;;;5111917;28;20173;-55
2023/02/22 02:55:45;;;;;;;4.43;4.00;;;17.50;55.80;;;;;;5111110;28;20169;-55
2023/02/22 02:58:19;;;;;;;4.40;4.00;;;17.50;55.80;;;;;;5112859;28;20181;-56
2023/02/22 03:00:45;;;;;;;5.50;5.00;;;17.50;55.70;;;;;;5112611;28;20169;-58
2023/02/22 03:03:46;;;;;;;4.97;4.47;;;17.50;55.70;;;;;;5112126;28;20268;-58
2023/02/22 03:06:18;;;;;;;4.60;4.20;;;17.50;55.70;;;;;;5111964;28;20173;-57
2023/02/22 03:08:56;;;;;;;5.07;4.53;;;17.50;55.80;;;;;;5112441;28;20251;-56
2023/02/22 03:11:28;;;;;;;5.28;4.78;;;17.50;55.70;;;;;;5111260;28;20575;-56
2023/02/22 03:14:05;;;;;;;5.35;4.85;;;17.40;55.60;;;;;;5111374;28;20556;-56
2023/02/22 03:16:56;;;;;;;5.55;4.72;;;17.50;55.70;;;;;;5112898;28;20267;-56
2023/02/22 03:19:27;;;;;;;4.70;4.20;;;17.40;55.60;;;;;;5111537;28;20221;-57
2023/02/22 03:21:57;;;;;;;4.85;4.43;;;17.40;55.70;;;;;;5112634;28;20180;-57
2023/02/22 03:24:31;;;;;;;4.80;4.30;;;17.40;55.60;;;;;;5112037;28;20173;-56
2023/02/22 03:27:20;;;;;;;4.80;4.30;;;17.40;55.70;;;;;;5112307;28;20345;-55
2023/02/22 03:29:45;;;;;;;4.97;4.47;;;17.40;55.70;;;;;;5114776;28;20169;-56
2023/02/22 03:32:18;;;;;;;5.32;4.82;;;17.40;55.60;;;;;;5114647;28;20268;-54
2023/02/22 03:35:05;;;;;;;5.07;4.57;;;17.40;55.60;;;;;;5114912;28;20226;-56
2023/02/22 03:37:33;;;;;;;5.75;4.55;;;17.40;55.60;;;;;;5114867;28;20173;-55
2023/02/22 03:39:59;;;;;;;4.95;4.50;;;17.40;55.60;;;;;;5114254;28;20635;-57
2023/02/22 03:42:28;;;;;;;5.03;4.60;;;17.40;55.60;;;;;;5098616;28;20257;-57
2023/02/22 03:44:55;;;;;;;5.53;4.93;;;17.40;55.60;;;;;;5114782;28;20173;-57
2023/02/22 03:47:27;;;;;;;4.70;4.20;;;17.30;55.60;;;;;;5113979;28;20261;-57
2023/02/22 03:49:58;;;;;;;5.47;4.90;;;17.40;55.60;;;;;;5098432;28;20181;-56
2023/02/22 03:52:24;;;;;;;4.40;4.00;;;17.30;55.60;;;;;;5097749;28;20177;-54
2023/02/22 03:54:53;;;;;;;5.32;4.82;;;17.30;55.60;;;;;;5114556;28;20196;-56
2023/02/22 03:57:25;;;;;;;5.60;5.07;;;17.30;55.60;;;;;;5116085;28;20180;-56
2023/02/22 03:59:50;;;;;;;5.43;4.93;;;17.30;55.60;;;;;;5113728;28;20245;-57
2023/02/22 04:02:17;;;;;;;5.43;4.93;;;17.30;55.60;;;;;;5097753;28;20203;-57
2023/02/22 04:04:44;;;;;;;5.38;4.85;;;17.30;55.60;;;;;;5115461;28;20173;-56
2023/02/22 04:07:09;;;;;;;5.20;4.70;;;17.30;55.60;;;;;;5113656;28;20213;-57
2023/02/22 04:09:35;;;;;;;6.15;5.15;;;17.30;55.60;;;;;;5115509;28;20187;-54
2023/02/22 04:12:01;;;;;;;5.18;4.78;;;17.20;55.50;;;;;;5115864;28;20169;-57
2023/02/22 04:14:27;;;;;;;5.65;4.65;;;17.30;55.60;;;;;;5115223;28;20169;-56
2023/02/22 04:16:52;;;;;;;4.90;4.40;;;17.20;55.50;;;;;;5115178;28;20205;-56
2023/02/22 04:19:19;;;;;;;4.93;4.43;;;17.20;55.50;;;;;;5115408;28;20287;-56
2023/02/22 04:21:44;;;;;;;6.03;5.25;;;17.30;55.60;;;;;;5114276;28;20204;-56
2023/02/22 04:24:10;;;;;;;6.18;4.72;;;17.20;55.50;;;;;;5115541;28;20285;-56
2023/02/22 04:26:36;;;;;;;5.10;4.60;;;17.20;55.50;;;;;;5115004;28;20169;-56
2023/02/22 04:29:03;;;;;;;5.18;4.68;;;17.20;55.50;;;;;;5114767;28;20173;-56
2023/02/22 04:31:29;;;;;;;5.68;5.07;;;17.20;55.50;;;;;;5115605;28;20169;-56
2023/02/22 04:33:54;;;;;;;5.15;4.65;;;17.20;55.50;;;;;;5115072;28;20246;-56
2023/02/22 04:36:20;;;;;;;5.28;4.78;;;17.20;55.50;;;;;;5114275;28;20169;-57
2023/02/22 04:38:46;;;;;;;4.82;4.43;;;17.20;55.50;;;;;;5114916;28;20203;-57
2023/02/22 04:41:11;;;;;;;5.20;4.70;;;17.20;55.50;;;;;;5115233;28;20173;-56
2023/02/22 04:43:37;;;;;;;5.32;4.82;;;17.20;55.50;;;;;;5114397;28;20659;-57
2023/02/22 04:46:03;;;;;;;5.40;4.82;;;17.20;55.50;;;;;;5115057;28;20212;-57
2023/02/22 04:48:29;;;;;;;5.68;4.93;;;17.20;55.50;;;;;;5114252;28;20216;-55
2023/02/22 04:50:54;;;;;;;5.43;4.65;;;17.20;55.50;;;;;;5114501;28;20169;-56
2023/02/22 04:53:20;;;;;;;5.78;5.18;;;17.20;55.50;;;;;;5114952;28;20177;-55
2023/02/22 04:55:45;;;;;;;4.90;4.38;;;17.20;55.50;;;;;;5113897;28;20173;-56
2023/02/22 04:58:11;;;;;;;5.75;4.97;;;17.10;55.40;;;;;;5114897;28;20173;-56
2023/02/22 05:00:36;;;;;;;5.43;4.93;;;17.10;55.40;;;;;;5114320;28;20619;-56
2023/02/22 05:03:02;;;;;;;6.35;5.05;;;17.10;55.40;;;;;;5113749;28;20173;-58
2023/02/22 05:05:28;;;;;;;5.68;5.07;;;17.10;55.40;;;;;;5114438;28;20169;-55
2023/02/22 05:07:53;;;;;;;5.70;5.10;;;17.10;55.40;;;;;;5114030;28;20234;-57
2023/02/22 05:10:19;;;;;;;6.03;5.18;;;17.10;55.30;;;;;;5113902;28;20165;-54
2023/02/22 05:12:44;;;;;;;5.82;5.32;;;17.10;55.40;;;;;;5114253;28;20519;-56
2023/02/22 05:15:10;;;;;;;5.63;5.05;;;17.10;55.40;;;;;;5114313;28;20685;-55
2023/02/22 05:17:35;;;;;;;5.93;5.22;;;17.10;55.40;;;;;;5113240;28;20312;-54
2023/02/22 05:20:02;;;;;;;6.43;5.80;;;17.10;55.40;;;;;;5114278;28;20184;-57
2023/02/22 05:22:28;;;;;;;6.75;5.47;;;17.10;55.40;;;;;;5114188;28;20572;-55
2023/02/22 05:24:54;;;;;;;5.75;5.15;;;17.10;55.30;;;;;;5113419;28;20256;-57
2023/02/22 05:27:20;;;;;;;5.65;5.15;;;17.10;55.40;;;;;;5114156;28;20285;-55
2023/02/22 05:29:46;;;;;;;6.45;5.45;;;17.10;55.30;;;;;;5113848;28;20174;-56
2023/02/22 05:32:11;;;;;;;6.38;5.78;;;17.00;55.30;;;;;;5113315;28;20184;-57
2023/02/22 05:34:37;;;;;;;5.68;5.03;;;17.00;55.30;;;;;;5113667;28;20177;-57
2023/02/22 05:37:03;;;;;;;6.55;5.82;;;17.00;55.30;;;;;;5114049;28;20189;-57
2023/02/22 05:39:29;;;;;;;5.97;5.40;;;17.00;55.30;;;;;;5113478;28;20170;-58
2023/02/22 05:41:55;;;;;;;6.20;5.70;;;17.00;55.30;;;;;;5113503;28;20585;-58
2023/02/22 05:44:20;;;;;;;6.05;5.45;;;17.00;55.30;;;;;;5113815;28;20168;-58
2023/02/22 05:46:46;;;;;;;6.30;5.70;;;17.00;55.30;;;;;;5112779;28;20177;-58
2023/02/22 05:49:11;;;;;;;7.40;6.07;;;17.00;55.30;;;;;;5113426;28;20173;-57
2023/02/22 05:51:37;;;;;;;6.63;5.93;;;17.00;55.30;;;;;;5112516;28;20260;-55
2023/02/22 05:54:02;;;;;;;6.82;6.10;;;17.00;55.30;;;;;;5113762;28;20306;-56
2023/02/22 05:56:29;;;;;;;6.45;5.85;;;17.00;55.30;;;;;;5113557;28;20226;-56
2023/02/22 05:58:55;;;;;;;6.90;6.20;;;17.00;55.30;;;;;;5112760;28;20247;-57
2023/02/22 06:01:21;;;;;;;6.90;6.20;;;17.00;55.30;;;;;;5113708;28;20519;-58
2023/02/22 06:03:47;;;;;;;6.30;5.40;;;17.00;55.30;;;;;;5113291;28;20226;-58
2023/02/22 06:06:13;;;;;;;6.75;6.05;;;16.90;55.30;;;;;;5112796;28;20260;-57
2023/02/22 06:08:39;;;;;;;6.88;6.18;;;17.00;55.30;;;;;;5113326;28;20257;-57
2023/02/22 06:11:04;;;;;;;6.57;5.88;;;16.90;55.30;;;;;;5113950;28;20173;-55
2023/02/22 06:13:30;;;;;;;7.35;6.22;;;16.90;55.30;;;;;;5112767;28;20177;-56
2023/02/22 06:15:55;;;;;;;6.25;5.57;;;16.90;55.30;;;;;;5113045;28;20631;-57
2023/02/22 06:18:21;;;;;;;6.40;5.80;;;16.90;55.30;;;;;;5113191;28;20221;-57
2023/02/22 06:20:47;;;;;;;6.70;6.00;;;16.90;55.30;;;;;;5112186;28;20527;-57
2023/02/22 06:23:12;;;;;;;7.00;6.30;;;16.90;55.30;;;;;;5113540;28;20173;-56
2023/02/22 06:25:38;;;;;;;6.47;5.75;;;16.90;55.30;;;;;;5113375;28;20180;-56
2023/02/22 06:28:03;;;;;;;6.97;6.28;;;16.90;55.30;;;;;;5112837;28;20217;-56
2023/02/22 06:30:29;;;;;;;6.70;6.03;;;16.90;55.30;;;;;;5113339;28;20165;-56
2023/02/22 06:32:55;;;;;;;6.55;5.72;;;16.90;55.30;;;;;;5113108;28;20222;-56
2023/02/22 06:35:21;;;;;;;6.47;5.88;;;16.90;55.30;;;;;;5112510;28;20180;-57
2023/02/22 06:37:47;;;;;;;6.97;6.28;;;16.90;55.30;;;;;;5113078;28;20178;-57
2023/02/22 06:40:12;;;;;;;6.50;5.90;;;16.90;55.30;;;;;;5113491;28;20181;-57
2023/02/22 06:42:38;;;;;;;6.40;5.80;;;16.90;55.30;;;;;;5112157;28;20184;-56
2023/02/22 06:45:04;;;;;;;6.68;5.97;;;16.90;55.30;;;;;;5113158;28;20238;-58
2023/02/22 06:47:29;;;;;;;6.72;6.03;;;16.80;55.20;;;;;;5113225;28;20209;-56
2023/02/22 06:49:55;;;;;;;6.72;6.03;;;16.80;55.20;;;;;;5111923;28;20173;-57
2023/02/22 06:52:21;;;;;;;6.25;5.65;;;16.80;55.30;;;;;;5113212;28;20184;-56
2023/02/22 06:54:47;;;;;;;7.28;6.43;;;16.80;55.30;;;;;;5112891;28;20173;-56
2023/02/22 06:57:12;;;;;;;7.28;6.00;;;16.80;55.30;;;;;;5112410;28;20585;-56
2023/02/22 06:59:38;;;;;;;7.00;6.30;;;16.80;55.30;;;;;;5112743;28;20175;-58
2023/02/22 07:02:03;;;;;;;6.28;5.68;;;16.80;55.30;;;;;;5113681;28;20264;-58
2023/02/22 07:04:29;;;;;;;6.65;5.90;;;16.80;55.30;;;;;;5116891;28;20255;-58
2023/02/22 07:06:55;;;;;;;6.55;5.80;;;16.80;55.30;;;;;;5116541;28;20246;-57
2023/02/22 07:09:20;;;;;;;6.57;5.93;;;16.80;55.30;;;;;;5116709;28;20192;-54
2023/02/22 07:11:46;;;;;;;6.03;5.43;;;16.70;55.30;;;;;;5116774;28;20666;-55
2023/02/22 07:14:11;;;;;;;6.53;5.90;;;16.80;55.30;;;;;;5116811;28;20577;-55
2023/02/22 07:16:37;;;;;;;6.50;5.80;;;16.80;55.30;;;;;;5115516;28;20632;-56
2023/02/22 07:19:02;;;;;;;7.35;6.28;;;16.80;55.30;;;;;;5116867;28;20185;-56
2023/02/22 07:21:28;;;;;;;7.47;6.30;;;16.70;55.20;;;;;;5117016;28;20198;-58
2023/02/22 07:23:54;;;;;;;6.55;5.95;;;16.70;55.30;;;;;;5115907;28;20184;-56
2023/02/22 07:26:20;;;;;;;5.80;5.22;;;16.70;55.30;;;;;;5116546;28;20173;-56
2023/02/22 07:28:46;;;;;;;6.60;6.00;;;16.70;55.30;;;;;;5116129;28;20671;-56
2023/02/22 07:31:11;;;;;;;6.22;5.63;;;16.70;55.20;;;;;;5115635;28;20642;-56
2023/02/22 07:33:37;;;;;;;7.68;6.63;;;16.70;55.20;;;;;;5115923;28;20176;-57
2023/02/22 07:36:02;;;;;;;6.53;5.80;;;16.70;55.20;;;;;;5116207;28;20544;-57
2023/02/22 07:38:28;;;;;;;6.55;5.88;;;16.70;55.30;;;;;;5115542;28;20745;-56
2023/02/22 07:40:53;;;;;;;6.95;6.20;;;16.70;55.20;;;;;;5116007;28;20256;-58
2023/02/22 07:43:19;;;;;;;6.47;5.85;;;16.70;55.20;;;;;;5116242;28;20265;-58
2023/02/22 07:45:45;;;;;;;6.82;6.13;;;16.60;55.30;;;;;;5115089;28;20303;-57
2023/02/22 07:48:14;;;;;;;6.10;5.50;;;16.70;55.90;;;;;;5116020;28;20241;-57
2023/02/22 07:50:39;;;;;;;7.20;6.43;;;16.70;55.20;;;;;;5115944;28;20173;-55
2023/02/22 07:53:09;;;;;;;6.78;6.07;;;16.70;55.20;;;;;;5115333;28;20173;-58
2023/02/22 07:55:35;;;;;;;6.68;5.93;;;16.60;55.20;;;;;;5114467;28;20260;-66
2023/02/22 07:58:02;;;;;;;9.73;6.38;;;16.70;55.50;;;;;;5115648;28;20606;-66
2023/02/22 08:00:36;;;;;;;6.90;5.90;;;16.70;55.60;;;;;;5114920;28;20622;-65
2023/02/22 08:03:03;;;;;;;9.35;6.50;;;16.70;55.90;;;;;;5115671;28;20681;-66
2023/02/22 08:05:29;;;;;;;7.35;6.22;;;16.70;55.80;;;;;;5114625;28;20275;-65
2023/02/22 08:07:55;;;;;;;9.60;7.10;;;16.70;55.90;;;;;;5114920;28;20217;-65
2023/02/22 08:10:22;;;;;;;7.28;5.85;;;16.80;55.80;;;;;;5115151;28;20580;-66
2023/02/22 08:12:48;;;;;;;7.13;5.97;;;16.80;55.60;;;;;;5113621;28;20631;-67
2023/02/22 08:15:24;;;;;;;8.52;6.47;;;16.80;55.60;;;;;;5115240;28;20212;-66
2023/02/22 08:17:50;;;;;;;7.43;6.45;;;16.80;55.60;;;;;;5115308;28;20228;-67
2023/02/22 08:20:16;;;;;;;7.85;6.50;;;16.80;55.70;;;;;;5114745;28;20165;-66
2023/02/22 08:22:45;;;;;;;7.45;6.72;;;16.80;55.60;;;;;;5115124;28;20177;-65
2023/02/22 08:25:11;;;;;;;7.25;6.07;;;16.80;55.70;;;;;;5115418;28;20197;-66
2023/02/22 08:27:36;;;;;;;7.03;6.32;;;16.80;55.60;;;;;;5114117;28;20207;-67
2023/02/22 08:30:03;;;;;;;8.55;6.93;;;16.90;55.70;;;;;;5115190;28;20165;-69
2023/02/22 08:32:28;;;;;;;7.65;6.20;;;16.90;55.70;;;;;;5114235;28;20181;-69
2023/02/22 08:34:54;;;;;;;9.20;6.95;;;16.90;56.30;;;;;;5114080;28;20199;-68
2023/02/22 08:37:20;;;;;;;8.70;7.25;;;16.90;55.90;;;;;;5115257;28;20250;-68
2023/02/22 08:39:45;;;;;;;8.45;6.97;;;16.80;55.80;;;;;;5114741;28;20174;-68
2023/02/22 08:42:11;;;;;;;8.05;7.07;;;16.80;55.80;;;;;;5114279;28;20173;-68
2023/02/22 08:44:37;;;;;;;7.38;6.57;;;16.80;55.80;;;;;;5114882;28;20222;-68
2023/02/22 08:47:02;;;;;;;8.43;6.88;;;16.80;55.80;;;;;;5114821;28;20228;-67
2023/02/22 08:49:28;;;;;;;9.45;7.22;;;16.80;55.80;;;;;;5114205;28;20181;-67
2023/02/22 08:51:53;;;;;;;7.82;6.55;;;16.80;55.70;;;;;;5114801;28;20174;-66
2023/02/22 08:54:19;;;;;;;8.55;7.57;;;16.80;55.80;;;;;;5114877;28;20180;-67
2023/02/22 08:56:44;;;;;;;8.55;6.72;;;16.80;55.70;;;;;;5113672;28;20169;-68
2023/02/22 08:59:10;;;;;;;7.50;6.75;;;16.80;55.80;;;;;;5114438;28;20168;-68
2023/02/22 09:01:36;;;;;;;9.43;7.40;;;16.80;55.70;;;;;;5113184;28;20214;-68
2023/02/22 09:04:01;;;;;;;8.07;6.78;;;16.70;55.60;;;;;;5114527;28;20169;-68
2023/02/22 09:06:28;;;;;;;8.07;7.25;;;16.80;55.70;;;;;;5114564;27;20184;-67
2023/02/22 09:08:53;;;;;;;7.65;6.70;;;16.80;55.70;;;;;;5113251;28;20231;-66
2023/02/22 09:11:19;;;;;;;12.48;7.40;;;16.80;55.80;;;;;;5113895;28;20165;-66
2023/02/22 09:13:44;;;;;;;7.32;6.15;;;16.80;56.00;;;;;;5113961;28;20690;-67
2023/02/22 09:16:10;;;;;;;7.82;7.03;;;16.80;55.80;;;;;;5112885;28;20620;-67
2023/02/22 09:18:35;;;;;;;9.48;7.30;;;16.80;55.80;;;;;;5113456;28;20269;-66
2023/02/22 09:21:02;;;;;;;8.95;6.53;;;16.80;55.80;;;;;;5113769;28;20165;-63
2023/02/22 09:23:27;;;;;;;7.93;7.10;;;16.80;56.60;;;;;;5112909;28;20243;-63
2023/02/22 09:25:53;;;;;;;7.75;6.13;;;16.80;56.00;;;;;;5112289;28;20627;-63
2023/02/22 09:28:18;;;;;;;7.28;6.03;;;16.80;56.00;;;;;;5113463;28;20296;-63
2023/02/22 09:30:44;;;;;;;7.55;6.68;;;16.80;55.90;;;;;;5112667;28;20536;-63
2023/02/22 09:33:14;;;;;;;8.77;7.28;;;16.80;55.80;;;;;;5113554;28;20316;-63
2023/02/22 09:35:45;;;;;;;8.77;7.05;;;16.80;55.80;;;;;;5113259;28;20169;-63
2023/02/22 09:38:11;;;;;;;8.30;6.30;;;16.80;55.80;;;;;;5112696;28;20177;-64
2023/02/22 09:40:40;;;;;;;8.48;6.60;;;16.80;55.90;;;;;;5112905;28;20689;-63
2023/02/22 09:43:24;;;;;;;8.50;6.95;;;16.70;55.80;;;;;;5113534;28;20264;-63
2023/02/22 09:46:10;;;;;;;7.93;6.47;;;16.80;55.80;;;;;;5112463;28;20241;-62
2023/02/22 09:48:49;;;;;;;6.78;6.18;;;16.80;55.80;;;;;;5113005;28;20291;-61
2023/02/22 09:51:15;;;;;;;7.80;6.10;;;16.80;55.80;;;;;;5112800;28;20157;-61
2023/02/22 09:53:43;;;;;;;7.47;6.15;;;16.80;55.80;;;;;;5111945;28;20244;-62
2023/02/22 09:56:13;;;;;;;9.55;7.22;;;16.80;55.80;;;;;;5095347;28;20177;-63
2023/02/22 09:58:44;;;;;;;6.97;6.13;;;16.80;55.80;;;;;;5094073;28;20173;-64
2023/02/22 10:01:25;;;;;;;8.68;7.07;;;16.70;55.70;;;;;;5113044;28;20179;-63
2023/02/22 10:04:18;;;;;;;6.85;5.65;;;16.80;55.80;;;;;;5112900;28;20169;-63
2023/02/22 10:06:53;;;;;;;10.23;7.00;;;16.80;55.80;;;;;;5111843;28;20726;-62
2023/02/22 10:09:19;;;;;;;7.25;6.55;;;16.80;55.80;;;;;;5111847;28;20181;-62
2023/02/22 10:11:54;;;;;;;7.45;6.43;;;16.80;55.80;;;;;;5094484;28;20168;-62
2023/02/22 10:14:44;;;;;;;7.85;6.57;;;16.70;55.80;;;;;;5112816;28;20268;-63
2023/02/22 10:17:38;;;;;;;6.65;5.93;;;16.80;55.80;;;;;;5111257;28;20225;-62
2023/02/22 10:20:19;;;;;;;6.85;6.15;;;16.80;55.80;;;;;;5110720;28;20186;-64
2023/02/22 10:22:55;;;;;;;7.05;6.35;;;16.80;55.80;;;;;;5112427;28;20169;-63
2023/02/22 10:25:22;;;;;;;9.20;7.75;;;16.80;55.80;;;;;;5111658;28;20173;-63
2023/02/22 10:28:15;;;;;;;8.20;7.13;;;16.80;55.80;;;;;;5110393;28;20204;-63
2023/02/22 10:31:03;;;;;;;6.60;5.90;;;16.80;55.80;;;;;;5111206;28;20173;-63
2023/02/22 10:33:37;;;;;;;8.18;6.50;;;16.80;55.80;;;;;;5112097;28;20512;-63
2023/02/22 10:36:02;;;;;;;7.25;6.45;;;16.80;55.80;;;;;;5113204;28;20177;-63
2023/02/22 10:38:32;;;;;;;7.57;6.68;;;16.80;55.80;;;;;;5116804;27;20263;-63
2023/02/22 10:41:09;;;;;;;8.65;6.88;;;16.80;55.70;;;;;;5115933;28;20186;-62
2023/02/22 10:43:39;;;;;;;6.80;5.93;;;16.90;55.80;;;;;;5116570;28;20507;-62
2023/02/22 10:46:06;;;;;;;7.75;6.95;;;16.90;55.70;;;;;;5115682;28;20170;-62
2023/02/22 10:48:34;;;;;;;7.00;6.30;;;16.90;56.30;;;;;;5114341;28;20847;-62
2023/02/22 10:51:00;;;;;;;6.70;6.07;;;16.90;55.70;;;;;;5115385;28;20191;-61
2023/02/22 10:53:26;;;;;;;7.22;6.53;;;16.90;56.20;;;;;;5116587;28;20185;-61
2023/02/22 10:56:08;;;;;;;7.43;6.38;;;17.00;55.70;;;;;;5115436;28;20549;-62
2023/02/22 10:59:04;;;;;;;7.05;6.25;;;16.90;55.60;;;;;;5116338;28;20233;-63
2023/02/22 11:01:30;;;;;;;6.82;6.20;;;17.00;55.60;;;;;;5115016;28;20199;-63
2023/02/22 11:03:56;;;;;;;7.82;7.03;;;17.00;55.60;;;;;;5115895;28;20185;-62
2023/02/22 11:06:22;;;;;;;7.47;6.68;;;17.00;55.60;;;;;;5114961;28;20608;-62
2023/02/22 11:08:50;;;;;;;6.97;6.28;;;17.10;55.60;;;;;;5115292;28;20215;-62
2023/02/22 11:11:23;;;;;;;7.20;6.40;;;17.10;55.60;;;;;;5116452;28;20257;-63
2023/02/22 11:13:59;;;;;;;7.50;6.68;;;17.10;55.50;;;;;;5115935;28;20181;-63
2023/02/22 11:16:30;;;;;;;6.70;5.93;;;17.10;55.40;;;;;;5115367;28;20723;-63
2023/02/22 11:19:21;;;;;;;6.68;5.93;;;17.10;55.40;;;;;;5114303;28;20247;-63
2023/02/22 11:21:50;;;;;;;7.35;6.05;;;17.20;55.40;;;;;;5109348;28;20181;-63
2023/02/22 11:24:15;;;;;;;7.45;6.70;;;17.20;56.00;;;;;;5113981;28;20176;-63
2023/02/22 11:26:43;;;;;;;7.55;6.75;;;17.20;55.30;;;;;;5114339;28;20172;-62
2023/02/22 11:29:17;;;;;;;8.30;7.07;;;17.20;55.40;;;;;;5115190;28;20634;-62
2023/02/22 11:31:43;;;;;;;7.22;5.80;;;17.20;55.30;;;;;;5114527;28;20173;-63
2023/02/22 11:34:23;;;;;;;6.85;6.20;;;17.30;55.40;;;;;;5115870;28;20264;-64
2023/02/22 11:36:50;;;;;;;7.75;6.85;;;17.30;55.30;;;;;;5113697;28;20284;-63
2023/02/22 11:39:25;;;;;;;7.65;6.85;;;17.30;55.30;;;;;;5114429;28;20268;-63
2023/02/22 11:41:51;;;;;;;6.60;5.82;;;17.30;55.30;;;;;;5115356;28;20169;-63
2023/02/22 11:44:27;;;;;;;7.72;6.63;;;17.30;55.30;;;;;;5114627;28;20188;-62
2023/02/22 11:46:54;;;;;;;7.90;6.60;;;17.40;55.30;;;;;;5115001;28;20184;-61
2023/02/22 11:49:22;;;;;;;7.57;6.88;;;17.30;55.30;;;;;;5115011;28;20269;-61
2023/02/22 11:52:09;;;;;;;7.57;6.78;;;17.30;55.90;;;;;;5113222;28;20200;-61
2023/02/22 11:54:40;;;;;;;8.15;6.57;;;17.30;55.30;;;;;;5114235;28;20177;-62
2023/02/22 11:57:06;;;;;;;7.43;6.55;;;17.30;55.30;;;;;;5114298;28;20222;-62
2023/02/22 11:59:40;;;;;;;7.53;6.30;;;17.30;55.30;;;;;;5114821;28;20556;-63
2023/02/22 12:02:17;;;;;;;9.18;7.47;;;17.30;55.30;;;;;;5115290;28;20173;-63
2023/02/22 12:04:42;;;;;;;7.80;6.38;;;17.30;55.40;;;;;;5114139;28;20914;-62
2023/02/22 12:07:47;;;;;;;7.25;6.55;;;17.30;55.40;;;;;;5115210;28;20667;-62
2023/02/22 12:10:56;;;;;;;7.15;6.45;;;17.20;55.50;;;;;;5115230;28;20179;-62
2023/02/22 12:13:53;;;;;;;7.13;6.43;;;17.20;55.50;;;;;;5071340;28;20179;-62
2023/02/22 12:16:24;;;;;;;7.03;6.28;;;17.20;55.60;;;;;;5100583;28;20571;-63
2023/02/22 12:19:27;;;;;;;7.07;6.28;;;17.20;55.70;;;;;;5114091;28;20225;-62
2023/02/22 12:21:56;;;;;;;7.95;6.90;;;17.20;55.70;;;;;;5115161;28;20173;-63
2023/02/22 12:24:24;;;;;;;7.30;6.60;;;17.10;55.70;;;;;;5113526;28;20203;-62
2023/02/22 12:26:54;;;;;;;6.78;6.15;;;17.20;55.70;;;;;;5112471;28;20185;-62
2023/02/22 12:29:46;;;;;;;7.25;6.55;;;17.20;55.70;;;;;;5113457;28;20220;-62
2023/02/22 12:32:39;;;;;;;7.53;6.75;;;17.20;55.70;;;;;;5113380;28;20196;-62
2023/02/22 12:35:25;;;;;;;7.45;6.68;;;17.20;55.60;;;;;;5113402;28;20199;-63
2023/02/22 12:38:03;;;;;;;7.18;6.43;;;17.20;55.60;;;;;;5113105;28;20184;-62
2023/02/22 12:40:53;;;;;;;6.95;6.25;;;17.20;55.50;;;;;;5112690;28;20255;-62
2023/02/22 12:43:28;;;;;;;8.07;6.55;;;17.20;55.50;;;;;;5114379;28;20265;-62
2023/02/22 12:46:12;;;;;;;7.00;6.30;;;17.20;55.50;;;;;;5114189;28;20267;-62
2023/02/22 12:49:05;;;;;;;6.70;6.10;;;17.20;55.50;;;;;;5112114;28;20615;-61
2023/02/22 12:51:41;;;;;;;6.93;6.22;;;17.20;55.60;;;;;;5114524;28;20177;-61
2023/02/22 12:54:13;;;;;;;6.95;6.13;;;17.20;55.60;;;;;;5112350;28;20256;-62
2023/02/22 12:56:49;;;;;;;8.27;7.03;;;17.20;55.70;;;;;;5113824;28;20180;-62
2023/02/22 12:59:36;;;;;;;6.35;5.85;;;17.10;55.70;;;;;;5111847;28;20646;-62
2023/02/22 13:02:18;;;;;;;7.18;6.47;;;17.10;55.70;;;;;;5112103;28;20180;-62